Time;durP1;ratioP1;P1;durP2;ratioP2;P2;SDS_P1;SDS_P2;PMS_P1;PMS_P2;Temp;Humidity;BMP_temperature;BMP_pressure;BME280_temperature;BME280_humidity;BME280_pressure;Samples;Min_cycle;Max_cycle;Signal;HPM_P1;HPM_P2
2022/11/09 00:01:29;;;;;;;;;;;;;;;;;;5071531;28;19928;-65
2022/11/09 00:03:56;;;;;;;;;;;;;;;;;;5062142;28;20208;-64
2022/11/09 00:06:22;;;;;;;;;;;;;;;;;;5061221;28;20343;-63
2022/11/09 00:08:48;;;;;;;;;;;;;;;;;;5071498;28;19985;-63
2022/11/09 00:11:14;;;;;;;;;;;;;;;;;;5070999;28;19932;-63
2022/11/09 00:13:40;;;;;;;;;;;;;;;;;;5077843;28;19925;-63
2022/11/09 00:16:07;;;;;;;;;;;;;;;;;;5071741;28;19924;-64
2022/11/09 00:18:33;;;;;;;;;;;;;;;;;;5062740;28;19936;-64
2022/11/09 00:20:59;;;;;;;;;;;;;;;;;;5056952;28;20301;-64
2022/11/09 00:23:25;;;;;;;;;;;;;;;;;;5077305;28;19962;-63
2022/11/09 00:25:51;;;;;;;;;;;;;;;;;;5074252;28;19977;-64
2022/11/09 00:28:18;;;;;;;;;;;;;;;;;;5071095;28;19981;-66
2022/11/09 00:30:44;;;;;;;;;;;;;;;;;;5068006;28;19928;-63
2022/11/09 00:33:11;;;;;;;;;;;;;;;;;;5068162;28;20388;-66
2022/11/09 00:35:37;;;;;;;;;;;;;;;;;;5076563;28;19930;-64
2022/11/09 00:38:03;;;;;;;;;;;;;;;;;;5066092;28;19924;-64
2022/11/09 00:40:29;;;;;;;;;;;;;;;;;;5076562;28;19924;-64
2022/11/09 00:42:56;;;;;;;;;;;;;;;;;;5060254;28;19985;-64
2022/11/09 00:45:22;;;;;;;;;;;;;;;;;;5066662;28;19970;-64
2022/11/09 00:47:48;;;;;;;;;;;;;;;;;;5070662;28;20015;-64
2022/11/09 00:50:15;;;;;;;;;;;;;;;;;;5074936;28;19924;-64
2022/11/09 00:52:41;;;;;;;;;;;;;;;;;;5071382;28;20449;-64
2022/11/09 00:55:07;;;;;;;;;;;;;;;;;;5066352;28;19929;-64
2022/11/09 00:57:33;;;;;;;;;;;;;;;;;;5062341;28;19928;-64
2022/11/09 00:59:59;;;;;;;;;;;;;;;;;;5065057;28;19929;-64
2022/11/09 01:02:26;;;;;;;;;;;;;;;;;;5063635;28;20373;-64
2022/11/09 01:04:52;;;;;;;;;;;;;;;;;;5075228;28;19955;-64
2022/11/09 01:07:18;;;;;;;;;;;;;;;;;;5068489;28;19952;-64
2022/11/09 01:09:44;;;;;;;;;;;;;;;;;;5064166;28;20014;-64
2022/11/09 01:12:10;;;;;;;;;;;;;;;;;;5065304;28;19928;-64
2022/11/09 01:14:36;;;;;;;;;;;;;;;;;;5078125;28;19928;-64
2022/11/09 01:17:03;;;;;;;;;;;;;;;;;;5078878;28;19970;-64
2022/11/09 01:19:29;;;;;;;;;;;;;;;;;;5074275;28;20651;-65
2022/11/09 01:21:55;;;;;;;;;;;;;;;;;;5077401;28;19932;-65
2022/11/09 01:24:21;;;;;;;;;;;;;;;;;;5071099;28;19924;-64
2022/11/09 01:26:47;;;;;;;;;;;;;;;;;;5067520;28;19978;-64
2022/11/09 01:29:13;;;;;;;;;;;;;;;;;;5065468;28;20377;-65
2022/11/09 01:31:40;;;;;;;;;;;;;;;;;;5068594;28;19925;-64
2022/11/09 01:34:06;;;;;;;;;;;;;;;;;;5072122;28;20010;-63
2022/11/09 01:36:32;;;;;;;;;;;;;;;;;;5061860;28;19928;-64
2022/11/09 01:38:58;;;;;;;;;;;;;;;;;;5068616;28;20599;-64
2022/11/09 01:41:24;;;;;;;;;;;;;;;;;;5060101;28;20685;-64
2022/11/09 01:43:50;;;;;;;;;;;;;;;;;;5075964;28;19928;-63
2022/11/09 01:46:17;;;;;;;;;;;;;;;;;;5073811;28;20435;-63
2022/11/09 01:48:43;;;;;;;;;;;;;;;;;;5078021;28;19924;-64
2022/11/09 01:51:09;;;;;;;;;;;;;;;;;;5068317;28;20377;-64
2022/11/09 01:53:35;;;;;;;;;;;;;;;;;;5063456;28;19974;-65
2022/11/09 01:56:01;;;;;;;;;;;;;;;;;;5068382;28;19978;-64
2022/11/09 01:58:28;;;;;;;;;;;;;;;;;;5075639;28;19978;-64
2022/11/09 02:00:54;;;;;;;;;;;;;;;;;;5074500;28;19924;-63
2022/11/09 02:03:20;;;;;;;;;;;;;;;;;;5075577;28;20023;-63
2022/11/09 02:05:47;;;;;;;;;;;;;;;;;;5060421;28;20265;-63
2022/11/09 02:08:13;;;;;;;;;;;;;;;;;;5070990;28;19974;-63
2022/11/09 02:10:39;;;;;;;;;;;;;;;;;;5072776;28;19928;-63
2022/11/09 02:13:05;;;;;;;;;;;;;;;;;;5075145;28;19932;-62
2022/11/09 02:15:32;;;;;;;;;;;;;;;;;;5067863;28;20050;-63
2022/11/09 02:17:58;;;;;;;;;;;;;;;;;;5078421;28;19958;-63
2022/11/09 02:20:24;;;;;;;;;;;;;;;;;;5074738;28;19974;-64
2022/11/09 02:22:50;;;;;;;;;;;;;;;;;;5063329;28;19932;-64
2022/11/09 02:25:16;;;;;;;;;;;;;;;;;;5072531;28;19929;-64
2022/11/09 02:27:43;;;;;;;;;;;;;;;;;;5063878;28;20281;-64
2022/11/09 02:30:09;;;;;;;;;;;;;;;;;;5078898;28;20310;-64
2022/11/09 02:32:35;;;;;;;;;;;;;;;;;;5066308;28;19978;-64
2022/11/09 02:35:01;;;;;;;;;;;;;;;;;;5064544;28;19933;-64
2022/11/09 02:37:28;;;;;;;;;;;;;;;;;;5070991;28;19928;-64
2022/11/09 02:39:54;;;;;;;;;;;;;;;;;;5070507;28;19989;-64
2022/11/09 02:42:20;;;;;;;;;;;;;;;;;;5067250;28;19986;-64
2022/11/09 02:44:47;;;;;;;;;;;;;;;;;;5063112;28;20300;-64
2022/11/09 02:47:13;;;;;;;;;;;;;;;;;;5065237;28;19928;-64
2022/11/09 02:49:39;;;;;;;;;;;;;;;;;;5064974;28;19924;-64
2022/11/09 02:52:05;;;;;;;;;;;;;;;;;;5079039;28;19933;-63
2022/11/09 02:54:31;;;;;;;;;;;;;;;;;;5085586;28;20376;-64
2022/11/09 02:56:57;;;;;;;;;;;;;;;;;;5069134;28;20407;-64
2022/11/09 02:59:24;;;;;;;;;;;;;;;;;;5078084;28;19924;-64
2022/11/09 03:01:50;;;;;;;;;;;;;;;;;;5059987;28;19928;-64
2022/11/09 03:04:16;;;;;;;;;;;;;;;;;;5064778;28;19938;-64
2022/11/09 03:06:43;;;;;;;;;;;;;;;;;;5069554;28;19994;-64
2022/11/09 03:09:09;;;;;;;;;;;;;;;;;;5084561;28;20007;-64
2022/11/09 03:11:35;;;;;;;;;;;;;;;;;;5077804;28;20026;-64
2022/11/09 03:14:01;;;;;;;;;;;;;;;;;;5063930;28;20486;-64
2022/11/09 03:16:27;;;;;;;;;;;;;;;;;;5070140;28;19973;-64
2022/11/09 03:18:53;;;;;;;;;;;;;;;;;;5070831;28;19928;-64
2022/11/09 03:21:21;;;;;;;;;;;;;;;;;;5078843;28;19969;-64
2022/11/09 03:23:47;;;;;;;;;;;;;;;;;;5073027;28;20540;-64
2022/11/09 03:26:13;;;;;;;;;;;;;;;;;;5071774;28;20312;-64
2022/11/09 03:28:39;;;;;;;;;;;;;;;;;;5065489;28;20136;-64
2022/11/09 03:31:06;;;;;;;;;;;;;;;;;;5063932;28;19978;-64
2022/11/09 03:33:32;;;;;;;;;;;;;;;;;;5071357;28;20653;-65
2022/11/09 03:35:58;;;;;;;;;;;;;;;;;;5062555;28;19928;-66
2022/11/09 03:38:24;;;;;;;;;;;;;;;;;;5077558;28;19928;-65
2022/11/09 03:40:50;;;;;;;;;;;;;;;;;;5070800;28;19928;-66
2022/11/09 03:43:17;;;;;;;;;;;;;;;;;;5077551;28;19935;-65
2022/11/09 03:45:43;;;;;;;;;;;;;;;;;;5074293;28;19924;-65
2022/11/09 03:48:09;;;;;;;;;;;;;;;;;;5066177;28;19924;-65
2022/11/09 03:50:39;;;;;;;;;;;;;;;;;;5078303;28;19955;-65
2022/11/09 03:53:05;;;;;;;;;;;;;;;;;;5075764;28;19935;-65
2022/11/09 03:55:31;;;;;;;;;;;;;;;;;;5073318;28;19951;-64
2022/11/09 03:57:57;;;;;;;;;;;;;;;;;;5042293;28;19974;-65
2022/11/09 04:00:23;;;;;;;;;;;;;;;;;;5047025;28;20324;-65
2022/11/09 04:02:50;;;;;;;;;;;;;;;;;;5051467;28;20261;-65
2022/11/09 04:05:16;;;;;;;;;;;;;;;;;;5039877;28;20317;-65
2022/11/09 04:07:42;;;;;;;;;;;;;;;;;;5057080;28;19928;-65
2022/11/09 04:10:08;;;;;;;;;;;;;;;;;;5049043;28;19983;-65
2022/11/09 04:12:35;;;;;;;;;;;;;;;;;;5044616;28;19974;-65
2022/11/09 04:15:01;;;;;;;;;;;;;;;;;;5048495;28;19932;-65
2022/11/09 04:17:27;;;;;;;;;;;;;;;;;;5049337;28;20434;-65
2022/11/09 04:19:53;;;;;;;;;;;;;;;;;;5053838;28;19929;-65
2022/11/09 04:22:19;;;;;;;;;;;;;;;;;;5046809;28;19924;-65
2022/11/09 04:24:45;;;;;;;;;;;;;;;;;;5046163;28;20401;-65
2022/11/09 04:27:11;;;;;;;;;;;;;;;;;;5036282;28;20360;-65
2022/11/09 04:29:38;;;;;;;;;;;;;;;;;;5052994;28;19928;-65
2022/11/09 04:32:04;;;;;;;;;;;;;;;;;;5051162;28;19925;-65
2022/11/09 04:34:30;;;;;;;;;;;;;;;;;;5040413;28;19932;-65
2022/11/09 04:36:56;;;;;;;;;;;;;;;;;;5049723;28;19932;-65
2022/11/09 04:39:22;;;;;;;;;;;;;;;;;;5038509;28;19929;-64
2022/11/09 04:41:48;;;;;;;;;;;;;;;;;;5050818;28;19951;-65
2022/11/09 04:44:15;;;;;;;;;;;;;;;;;;5048163;28;19936;-65
2022/11/09 04:46:41;;;;;;;;;;;;;;;;;;5053791;28;19969;-64
2022/11/09 04:49:08;;;;;;;;;;;;;;;;;;5053834;28;19932;-65
2022/11/09 04:51:34;;;;;;;;;;;;;;;;;;5054379;28;19924;-65
2022/11/09 04:54:00;;;;;;;;;;;;;;;;;;5054164;28;19982;-65
2022/11/09 04:56:26;;;;;;;;;;;;;;;;;;5048509;28;19937;-65
2022/11/09 04:58:52;;;;;;;;;;;;;;;;;;5056575;28;20517;-65
2022/11/09 05:01:18;;;;;;;;;;;;;;;;;;5042748;28;19928;-63
2022/11/09 05:03:45;;;;;;;;;;;;;;;;;;5052881;28;19974;-64
2022/11/09 05:08:56;;;;;;;;;;;;;;;;;;5045724;28;19928;-64
2022/11/09 05:11:22;;;;;;;;;;;;;;;;;;5057201;28;19925;-64
2022/11/09 05:13:50;;;;;;;;;;;;;;;;;;5052841;28;20316;-64
2022/11/09 05:16:16;;;;;;;;;;;;;;;;;;5066531;28;19932;-64
2022/11/09 05:18:42;;;;;;;;;;;;;;;;;;5041330;28;20309;-64
2022/11/09 05:21:08;;;;;;;;;;;;;;;;;;5057684;28;19982;-65
2022/11/09 05:26:20;;;;;;;;;;;;;;;;;;5050552;28;19924;-64
2022/11/09 05:28:46;;;;;;;;;;;;;;;;;;5049504;28;19982;-64
2022/11/09 05:31:12;;;;;;;;;;;;;;;;;;5044147;28;19937;-64
2022/11/09 05:33:38;;;;;;;;;;;;;;;;;;5048449;28;19928;-64
2022/11/09 05:36:04;;;;;;;;;;;;;;;;;;5043344;28;20332;-63
2022/11/09 05:38:30;;;;;;;;;;;;;;;;;;5048769;28;19932;-64
2022/11/09 05:40:57;;;;;;;;;;;;;;;;;;5057245;28;19929;-63
2022/11/09 05:43:23;;;;;;;;;;;;;;;;;;5045989;28;19959;-63
2022/11/09 05:45:49;;;;;;;;;;;;;;;;;;5057266;28;20442;-64
2022/11/09 05:48:15;;;;;;;;;;;;;;;;;;5051195;28;19993;-64
2022/11/09 05:50:41;;;;;;;;;;;;;;;;;;5055775;28;20371;-64
2022/11/09 05:53:07;;;;;;;;;;;;;;;;;;5055904;28;19948;-64
2022/11/09 05:55:34;;;;;;;;;;;;;;;;;;5055710;28;19928;-64
2022/11/09 05:58:00;;;;;;;;;;;;;;;;;;5052885;28;19970;-64
2022/11/09 06:00:26;;;;;;;;;;;;;;;;;;5043938;28;19990;-64
2022/11/09 06:02:52;;;;;;;;;;;;;;;;;;5047821;28;19924;-64
2022/11/09 06:05:21;;;;;;;;;;;;;;;;;;5047625;28;19951;-64
2022/11/09 06:07:47;;;;;;;;;;;;;;;;;;5056748;28;20328;-64
2022/11/09 06:10:13;;;;;;;;;;;;;;;;;;5042356;28;19928;-64
2022/11/09 06:12:40;;;;;;;;;;;;;;;;;;5052803;28;20309;-64
2022/11/09 06:15:06;;;;;;;;;;;;;;;;;;5054519;28;19937;-64
2022/11/09 06:17:32;;;;;;;;;;;;;;;;;;5046369;28;19932;-64
2022/11/09 06:19:58;;;;;;;;;;;;;;;;;;5063401;28;20471;-64
2022/11/09 06:22:24;;;;;;;;;;;;;;;;;;5044820;28;20675;-63
2022/11/09 06:24:51;;;;;;;;;;;;;;;;;;5056287;28;19932;-62
2022/11/09 06:27:17;;;;;;;;;;;;;;;;;;5048407;28;19929;-64
2022/11/09 06:29:43;;;;;;;;;;;;;;;;;;5042980;28;19959;-63
2022/11/09 06:32:09;;;;;;;;;;;;;;;;;;5052833;28;20330;-64
2022/11/09 06:34:35;;;;;;;;;;;;;;;;;;5047369;28;19925;-63
2022/11/09 06:37:01;;;;;;;;;;;;;;;;;;5057044;28;20442;-63
2022/11/09 06:39:28;;;;;;;;;;;;;;;;;;5050470;28;19928;-64
2022/11/09 06:41:54;;;;;;;;;;;;;;;;;;5051376;28;19974;-63
2022/11/09 06:44:20;;;;;;;;;;;;;;;;;;5038197;28;20458;-64
2022/11/09 06:46:46;;;;;;;;;;;;;;;;;;5052687;28;19928;-64
2022/11/09 06:49:12;;;;;;;;;;;;;;;;;;5059094;28;19924;-64
2022/11/09 06:51:38;;;;;;;;;;;;;;;;;;5044676;28;20006;-64
2022/11/09 06:54:05;;;;;;;;;;;;;;;;;;5049594;28;20338;-64
2022/11/09 06:56:31;;;;;;;;;;;;;;;;;;5039833;28;20392;-64
2022/11/09 06:58:57;;;;;;;;;;;;;;;;;;5043885;28;20336;-64
2022/11/09 07:01:23;;;;;;;;;;;;;;;;;;5059208;28;19928;-64
2022/11/09 07:03:50;;;;;;;;;;;;;;;;;;5050539;28;19928;-63
2022/11/09 07:06:16;;;;;;;;;;;;;;;;;;5058771;28;19928;-63
2022/11/09 07:08:42;;;;;;;;;;;;;;;;;;5040765;28;19929;-63
2022/11/09 07:11:08;;;;;;;;;;;;;;;;;;5045936;28;19974;-64
2022/11/09 07:13:34;;;;;;;;;;;;;;;;;;5045207;28;20332;-64
2022/11/09 07:16:00;;;;;;;;;;;;;;;;;;5056646;28;20408;-63
2022/11/09 07:18:27;;;;;;;;;;;;;;;;;;5050398;28;19929;-64
2022/11/09 07:20:53;;;;;;;;;;;;;;;;;;5046608;28;19924;-62
2022/11/09 07:23:19;;;;;;;;;;;;;;;;;;5053268;28;20452;-64
2022/11/09 07:25:46;;;;;;;;;;;;;;;;;;5047512;28;19954;-64
2022/11/09 07:28:12;;;;;;;;;;;;;;;;;;5053727;28;19929;-64
2022/11/09 07:30:38;;;;;;;;;;;;;;;;;;5047108;28;19932;-64
2022/11/09 07:33:04;;;;;;;;;;;;;;;;;;5050547;28;19929;-63
2022/11/09 07:35:46;;;;;;;;;;;;;;;;;;5041791;28;19990;-63
2022/11/09 07:38:12;;;;;;;;;;;;;;;;;;5056725;28;19924;-64
2022/11/09 07:40:39;;;;;;;;;;;;;;;;;;5046430;28;20385;-64
2022/11/09 07:43:05;;;;;;;;;;;;;;;;;;5049806;28;19928;-64
2022/11/09 07:45:32;;;;;;;;;;;;;;;;;;5055896;28;19924;-64
2022/11/09 07:47:58;;;;;;;;;;;;;;;;;;5048148;28;19929;-64
2022/11/09 07:50:24;;;;;;;;;;;;;;;;;;5049800;28;19975;-63
2022/11/09 07:52:50;;;;;;;;;;;;;;;;;;5057470;28;20301;-63
2022/11/09 07:55:16;;;;;;;;;;;;;;;;;;5045766;28;19938;-64
2022/11/09 07:57:43;;;;;;;;;;;;;;;;;;5058338;28;19924;-63
2022/11/09 08:00:09;;;;;;;;;;;;;;;;;;5052192;28;19970;-64
2022/11/09 08:02:35;;;;;;;;;;;;;;;;;;5053135;28;19936;-64
2022/11/09 08:05:02;;;;;;;;;;;;;;;;;;5042083;28;20340;-64
2022/11/09 08:07:28;;;;;;;;;;;;;;;;;;5058794;28;19987;-64
2022/11/09 08:09:54;;;;;;;;;;;;;;;;;;5060762;28;19928;-64
2022/11/09 08:12:20;;;;;;;;;;;;;;;;;;5043590;28;19929;-64
2022/11/09 08:14:47;;;;;;;;;;;;;;;;;;5054946;28;19929;-63
2022/11/09 08:17:13;;;;;;;;;;;;;;;;;;5043563;28;19928;-64
2022/11/09 08:19:39;;;;;;;;;;;;;;;;;;5059189;28;19966;-64
2022/11/09 08:22:05;;;;;;;;;;;;;;;;;;5061905;28;19929;-64
2022/11/09 08:24:31;;;;;;;;;;;;;;;;;;5051142;28;19924;-64
2022/11/09 08:26:57;;;;;;;;;;;;;;;;;;5057555;28;19925;-64
2022/11/09 08:29:24;;;;;;;;;;;;;;;;;;5035210;28;19924;-64
2022/11/09 08:31:50;;;;;;;;;;;;;;;;;;5045809;28;19929;-64
2022/11/09 08:34:16;;;;;;;;;;;;;;;;;;5054353;28;19936;-64
2022/11/09 08:36:42;;;;;;;;;;;;;;;;;;5052153;28;19925;-64
2022/11/09 08:39:09;;;;;;;;;;;;;;;;;;5052961;28;19932;-64
2022/11/09 08:41:35;;;;;;;;;;;;;;;;;;5042096;28;19935;-64
2022/11/09 08:44:01;;;;;;;;;;;;;;;;;;5044556;28;19963;-65
2022/11/09 08:46:27;;;;;;;;;;;;;;;;;;5037154;28;19929;-64
2022/11/09 08:48:53;;;;;;;;;;;;;;;;;;5048109;28;19932;-64
2022/11/09 08:51:20;;;;;;;;;;;;;;;;;;5045998;28;19929;-64
2022/11/09 08:53:46;;;;;;;;;;;;;;;;;;5052799;28;19924;-65
2022/11/09 08:56:17;;;;;;;;;;;;;;;;;;5054782;28;19969;-64
2022/11/09 08:58:43;;;;;;;;;;;;;;;;;;5046814;28;19943;-64
2022/11/09 09:01:09;;;;;;;;;;;;;;;;;;5047902;28;19974;-65
2022/11/09 09:03:41;;;;;;;;;;;;;;;;;;5047242;28;19932;-64
2022/11/09 09:06:08;;;;;;;;;;;;;;;;;;5050655;28;19947;-64
2022/11/09 09:08:34;;;;;;;;;;;;;;;;;;5043224;28;19925;-64
2022/11/09 09:11:00;;;;;;;;;;;;;;;;;;5051691;28;20780;-64
2022/11/09 09:13:26;;;;;;;;;;;;;;;;;;5057633;28;19978;-64
2022/11/09 09:15:53;;;;;;;;;;;;;;;;;;5054722;28;19937;-61
2022/11/09 09:18:19;;;;;;;;;;;;;;;;;;5053140;28;20397;-64
2022/11/09 09:20:45;;;;;;;;;;;;;;;;;;5047051;28;19928;-64
2022/11/09 09:23:14;;;;;;;;;;;;;;;;;;5052214;28;20431;-65
2022/11/09 09:25:40;;;;;;;;;;;;;;;;;;5045098;28;19925;-64
2022/11/09 09:28:06;;;;;;;;;;;;;;;;;;5057332;28;20408;-64
2022/11/09 09:30:32;;;;;;;;;;;;;;;;;;5057833;28;19932;-65
2022/11/09 09:32:59;;;;;;;;;;;;;;;;;;5041878;28;19936;-63
2022/11/09 09:35:26;;;;;;;;;;;;;;;;;;5048070;28;19982;-64
2022/11/09 09:37:52;;;;;;;;;;;;;;;;;;5045730;28;20293;-64
2022/11/09 09:40:19;;;;;;;;;;;;;;;;;;5050303;28;19932;-64
2022/11/09 09:42:45;;;;;;;;;;;;;;;;;;5045858;28;19929;-64
2022/11/09 09:45:11;;;;;;;;;;;;;;;;;;5052652;28;20385;-64
2022/11/09 09:47:37;;;;;;;;;;;;;;;;;;5056631;28;19972;-64
2022/11/09 09:50:03;;;;;;;;;;;;;;;;;;5042939;28;19928;-64
2022/11/09 09:52:30;;;;;;;;;;;;;;;;;;5071807;28;19924;-64
2022/11/09 09:54:56;;;;;;;;;;;;;;;;;;5055616;28;19986;-65
2022/11/09 09:57:22;;;;;;;;;;;;;;;;;;5051756;28;19933;-65
2022/11/09 09:59:48;;;;;;;;;;;;;;;;;;5062623;28;19929;-64
2022/11/09 10:02:15;;;;;;;;;;;;;;;;;;5042948;28;19947;-65
2022/11/09 10:04:41;;;;;;;;;;;;;;;;;;5052394;28;19971;-65
2022/11/09 10:07:07;;;;;;;;;;;;;;;;;;5046497;28;20084;-65
2022/11/09 10:09:33;;;;;;;;;;;;;;;;;;5054207;28;19929;-65
2022/11/09 10:12:00;;;;;;;;;;;;;;;;;;5043583;28;19925;-65
2022/11/09 10:14:26;;;;;;;;;;;;;;;;;;5057271;28;19982;-65
2022/11/09 10:16:52;;;;;;;;;;;;;;;;;;5044162;28;19952;-64
2022/11/09 10:19:19;;;;;;;;;;;;;;;;;;5048994;28;19924;-65
2022/11/09 10:21:45;;;;;;;;;;;;;;;;;;5056031;28;19951;-65
2022/11/09 10:24:11;;;;;;;;;;;;;;;;;;5045710;28;19982;-65
2022/11/09 10:26:37;;;;;;;;;;;;;;;;;;5057508;28;19929;-65
2022/11/09 10:29:03;;;;;;;;;;;;;;;;;;5044602;28;20373;-65
2022/11/09 10:31:45;;;;;;;;;;;;;;;;;;5046776;28;19928;-65
2022/11/09 10:34:11;;;;;;;;;;;;;;;;;;5063358;28;19929;-65
2022/11/09 10:36:37;;;;;;;;;;;;;;;;;;5043691;28;20656;-65
2022/11/09 10:39:03;;;;;;;;;;;;;;;;;;5056925;28;20335;-65
2022/11/09 10:41:29;;;;;;;;;;;;;;;;;;5050744;28;19976;-65
2022/11/09 10:43:56;;;;;;;;;;;;;;;;;;5060282;28;20367;-65
2022/11/09 10:46:22;;;;;;;;;;;;;;;;;;5043978;28;19987;-64
2022/11/09 10:48:48;;;;;;;;;;;;;;;;;;5050564;28;20343;-65
2022/11/09 10:51:14;;;;;;;;;;;;;;;;;;5048771;28;19978;-65
2022/11/09 10:53:40;;;;;;;;;;;;;;;;;;5050785;28;20002;-65
2022/11/09 10:56:06;;;;;;;;;;;;;;;;;;5053060;28;19981;-65
2022/11/09 10:58:33;;;;;;;;;;;;;;;;;;5054376;28;19928;-65
2022/11/09 11:00:59;;;;;;;;;;;;;;;;;;5043041;28;20337;-65
2022/11/09 11:03:25;;;;;;;;;;;;;;;;;;5055157;28;20038;-65
2022/11/09 11:05:52;;;;;;;;;;;;;;;;;;5050653;28;19974;-67
2022/11/09 11:08:18;;;;;;;;;;;;;;;;;;5052834;28;19929;-65
2022/11/09 11:10:44;;;;;;;;;;;;;;;;;;5042177;28;19929;-65
2022/11/09 11:13:10;;;;;;;;;;;;;;;;;;5057045;28;20292;-65
2022/11/09 11:15:36;;;;;;;;;;;;;;;;;;5041974;28;19928;-65
2022/11/09 11:18:02;;;;;;;;;;;;;;;;;;5051237;28;20270;-65
2022/11/09 11:20:29;;;;;;;;;;;;;;;;;;5046374;28;19928;-65
2022/11/09 11:22:55;;;;;;;;;;;;;;;;;;5063692;28;19924;-64
2022/11/09 11:25:23;;;;;;;;;;;;;;;;;;5054416;28;19964;-65
2022/11/09 11:27:50;;;;;;;;;;;;;;;;;;5042979;28;19932;-65
2022/11/09 11:30:16;;;;;;;;;;;;;;;;;;5046776;28;20318;-65
2022/11/09 11:32:42;;;;;;;;;;;;;;;;;;5043501;28;20584;-65
2022/11/09 11:35:15;;;;;;;;;;;;;;;;;;5051311;28;19956;-65
2022/11/09 11:37:41;;;;;;;;;;;;;;;;;;5042610;28;19975;-65
2022/11/09 11:40:07;;;;;;;;;;;;;;;;;;5048423;28;20427;-65
2022/11/09 11:42:33;;;;;;;;;;;;;;;;;;5058311;28;19928;-65
2022/11/09 11:44:59;;;;;;;;;;;;;;;;;;5052714;28;20172;-65
2022/11/09 11:47:46;;;;;;;;;;;;;;;;;;5052492;28;19964;-65
2022/11/09 11:50:12;;;;;;;;;;;;;;;;;;5043970;28;20278;-65
2022/11/09 11:52:38;;;;;;;;;;;;;;;;;;5058028;28;19928;-65
2022/11/09 11:55:04;;;;;;;;;;;;;;;;;;5043758;28;19925;-65
2022/11/09 11:57:30;;;;;;;;;;;;;;;;;;5046954;28;20030;-65
2022/11/09 11:59:56;;;;;;;;;;;;;;;;;;5047798;28;19929;-65
2022/11/09 12:02:23;;;;;;;;;;;;;;;;;;5030345;28;19925;-65
2022/11/09 12:04:49;;;;;;;;;;;;;;;;;;5056120;28;20015;-65
2022/11/09 12:07:15;;;;;;;;;;;;;;;;;;5048024;28;19924;-65
2022/11/09 12:09:41;;;;;;;;;;;;;;;;;;5053561;28;19928;-64
2022/11/09 12:12:08;;;;;;;;;;;;;;;;;;5039430;28;19929;-64
2022/11/09 12:14:34;;;;;;;;;;;;;;;;;;5050135;28;19924;-65
2022/11/09 12:17:00;;;;;;;;;;;;;;;;;;5046825;28;20304;-65
2022/11/09 12:19:29;;;;;;;;;;;;;;;;;;5048850;28;19932;-65
2022/11/09 12:22:00;;;;;;;;;;;;;;;;;;5053171;28;20414;-65
2022/11/09 12:24:26;;;;;;;;;;;;;;;;;;5046857;28;20308;-65
2022/11/09 12:26:52;;;;;;;;;;;;;;;;;;5058894;28;19999;-64
2022/11/09 12:29:36;;;;;;;;;;;;;;;;;;5040459;28;19925;-64
2022/11/09 12:32:02;;;;;;;;;;;;;;;;;;5052639;28;19928;-64
2022/11/09 12:34:28;;;;;;;;;;;;;;;;;;5061145;28;20409;-65
2022/11/09 12:36:54;;;;;;;;;;;;;;;;;;5035340;28;19925;-65
2022/11/09 12:39:21;;;;;;;;;;;;;;;;;;5051128;28;20026;-65
2022/11/09 12:41:47;;;;;;;;;;;;;;;;;;5045872;28;19928;-64
2022/11/09 12:44:13;;;;;;;;;;;;;;;;;;5048419;28;19932;-63
2022/11/09 12:46:42;;;;;;;;;;;;;;;;;;5046501;28;19932;-64
2022/11/09 12:49:08;;;;;;;;;;;;;;;;;;5042655;28;20347;-64
2022/11/09 12:51:35;;;;;;;;;;;;;;;;;;5039920;28;20462;-63
2022/11/09 12:54:01;;;;;;;;;;;;;;;;;;5045771;28;19940;-67
2022/11/09 12:56:28;;;;;;;;;;;;;;;;;;5048202;28;19959;-66
2022/11/09 12:58:54;;;;;;;;;;;;;;;;;;5047426;28;19955;-66
2022/11/09 13:01:20;;;;;;;;;;;;;;;;;;5046965;28;19932;-66
2022/11/09 13:03:47;;;;;;;;;;;;;;;;;;5042257;28;19947;-66
2022/11/09 13:06:13;;;;;;;;;;;;;;;;;;5056219;28;19936;-66
2022/11/09 13:08:40;;;;;;;;;;;;;;;;;;5057913;28;19925;-66
2022/11/09 13:11:06;;;;;;;;;;;;;;;;;;5049463;28;19929;-66
2022/11/09 13:13:32;;;;;;;;;;;;;;;;;;5052888;28;19924;-66
2022/11/09 13:15:58;;;;;;;;;;;;;;;;;;5046266;28;19928;-66
2022/11/09 13:18:24;;;;;;;;;;;;;;;;;;5062922;28;20018;-66
2022/11/09 13:20:51;;;;;;;;;;;;;;;;;;5055945;28;19936;-66
2022/11/09 13:23:22;;;;;;;;;;;;;;;;;;5056426;28;19925;-65
2022/11/09 13:26:06;;;;;;;;;;;;;;;;;;5062387;28;19929;-65
2022/11/09 13:28:33;;;;;;;;;;;;;;;;;;5040615;28;19978;-65
2022/11/09 13:31:03;;;;;;;;;;;;;;;;;;5048885;28;19925;-65
2022/11/09 13:33:29;;;;;;;;;;;;;;;;;;5043278;28;19932;-65
2022/11/09 13:35:57;;;;;;;;;;;;;;;;;;5049418;28;19975;-65
2022/11/09 13:38:24;;;;;;;;;;;;;;;;;;5053716;28;19928;-65
2022/11/09 13:40:50;;;;;;;;;;;;;;;;;;5048924;28;20389;-65
2022/11/09 13:43:16;;;;;;;;;;;;;;;;;;5049989;28;20012;-65
2022/11/09 13:45:43;;;;;;;;;;;;;;;;;;5048192;28;19935;-65
2022/11/09 13:48:09;;;;;;;;;;;;;;;;;;5050071;28;20424;-65
2022/11/09 13:50:35;;;;;;;;;;;;;;;;;;5047330;28;19925;-64
2022/11/09 13:53:02;;;;;;;;;;;;;;;;;;5049155;28;19986;-64
2022/11/09 13:55:28;;;;;;;;;;;;;;;;;;5051801;28;19958;-64
2022/11/09 13:57:54;;;;;;;;;;;;;;;;;;5050426;28;19928;-64
2022/11/09 14:00:23;;;;;;;;;;;;;;;;;;5055375;28;19925;-64
2022/11/09 14:02:49;;;;;;;;;;;;;;;;;;5046911;28;20377;-64
2022/11/09 14:05:15;;;;;;;;;;;;;;;;;;5055073;28;19955;-64
2022/11/09 14:07:41;;;;;;;;;;;;;;;;;;5042777;28;19928;-64
2022/11/09 14:10:08;;;;;;;;;;;;;;;;;;5054615;28;19983;-64
2022/11/09 14:12:37;;;;;;;;;;;;;;;;;;5056197;28;19928;-64
2022/11/09 14:15:03;;;;;;;;;;;;;;;;;;5057947;28;19929;-64
2022/11/09 14:17:29;;;;;;;;;;;;;;;;;;5049383;28;19928;-64
2022/11/09 14:19:55;;;;;;;;;;;;;;;;;;5048387;28;20006;-64
2022/11/09 14:22:21;;;;;;;;;;;;;;;;;;5051036;28;19979;-64
2022/11/09 14:24:48;;;;;;;;;;;;;;;;;;5038813;28;19979;-64
2022/11/09 14:27:14;;;;;;;;;;;;;;;;;;5043572;28;20373;-64
2022/11/09 14:29:40;;;;;;;;;;;;;;;;;;5053342;28;19982;-64
2022/11/09 14:32:06;;;;;;;;;;;;;;;;;;5051047;28;19929;-65
2022/11/09 14:34:32;;;;;;;;;;;;;;;;;;5056459;28;19929;-63
2022/11/09 14:36:59;;;;;;;;;;;;;;;;;;5046751;28;19935;-64
2022/11/09 14:39:29;;;;;;;;;;;;;;;;;;5056340;28;19928;-64
2022/11/09 14:41:56;;;;;;;;;;;;;;;;;;5051311;28;19928;-64
2022/11/09 14:44:22;;;;;;;;;;;;;;;;;;5058398;28;20327;-64
2022/11/09 14:46:48;;;;;;;;;;;;;;;;;;5052346;28;19979;-64
2022/11/09 14:49:14;;;;;;;;;;;;;;;;;;5048216;28;20384;-65
2022/11/09 14:51:41;;;;;;;;;;;;;;;;;;5055927;28;20492;-64
2022/11/09 14:54:07;;;;;;;;;;;;;;;;;;5042053;28;19936;-64
2022/11/09 14:56:33;;;;;;;;;;;;;;;;;;5054092;28;19951;-64
2022/11/09 14:59:01;;;;;;;;;;;;;;;;;;5050694;28;19928;-64
2022/11/09 15:01:27;;;;;;;;;;;;;;;;;;5052012;28;19925;-64
2022/11/09 15:03:53;;;;;;;;;;;;;;;;;;5050969;28;19925;-64
2022/11/09 15:06:19;;;;;;;;;;;;;;;;;;5042117;28;20309;-64
2022/11/09 15:08:45;;;;;;;;;;;;;;;;;;5054673;28;20289;-64
2022/11/09 15:11:11;;;;;;;;;;;;;;;;;;5045344;28;19979;-64
2022/11/09 15:13:38;;;;;;;;;;;;;;;;;;5052758;28;20389;-63
2022/11/09 15:16:04;;;;;;;;;;;;;;;;;;5046812;28;19928;-64
2022/11/09 15:18:30;;;;;;;;;;;;;;;;;;5041464;28;20142;-63
2022/11/09 15:20:59;;;;;;;;;;;;;;;;;;5051532;28;19960;-64
2022/11/09 15:23:25;;;;;;;;;;;;;;;;;;5044234;28;20443;-64
2022/11/09 15:25:51;;;;;;;;;;;;;;;;;;5060257;28;19928;-64
2022/11/09 15:28:17;;;;;;;;;;;;;;;;;;5042410;28;20367;-64
2022/11/09 15:30:44;;;;;;;;;;;;;;;;;;5051772;28;19995;-64
2022/11/09 15:33:11;;;;;;;;;;;;;;;;;;5040481;28;20442;-64
2022/11/09 15:35:37;;;;;;;;;;;;;;;;;;5047209;28;19928;-64
2022/11/09 15:38:03;;;;;;;;;;;;;;;;;;5048470;28;19929;-64
2022/11/09 15:40:29;;;;;;;;;;;;;;;;;;5049148;28;20512;-64
2022/11/09 15:42:56;;;;;;;;;;;;;;;;;;5056638;28;19929;-64
2022/11/09 15:45:22;;;;;;;;;;;;;;;;;;5044847;28;20590;-64
2022/11/09 15:47:48;;;;;;;;;;;;;;;;;;5044651;28;19931;-64
2022/11/09 15:50:14;;;;;;;;;;;;;;;;;;5051821;28;20300;-64
2022/11/09 15:52:43;;;;;;;;;;;;;;;;;;5054407;28;19973;-64
2022/11/09 15:55:09;;;;;;;;;;;;;;;;;;5058423;28;19978;-64
2022/11/09 15:57:35;;;;;;;;;;;;;;;;;;5051659;28;19925;-65
2022/11/09 16:00:02;;;;;;;;;;;;;;;;;;5053919;28;19950;-64
2022/11/09 16:02:33;;;;;;;;;;;;;;;;;;5046174;28;19929;-64
2022/11/09 16:04:59;;;;;;;;;;;;;;;;;;5060480;28;19928;-64
2022/11/09 16:07:25;;;;;;;;;;;;;;;;;;5051494;28;19929;-64
2022/11/09 16:09:51;;;;;;;;;;;;;;;;;;5051790;28;19928;-64
2022/11/09 16:12:18;;;;;;;;;;;;;;;;;;5051177;28;20397;-64
2022/11/09 16:14:44;;;;;;;;;;;;;;;;;;5045972;28;20005;-64
2022/11/09 16:17:10;;;;;;;;;;;;;;;;;;5049503;28;19970;-64
2022/11/09 16:19:38;;;;;;;;;;;;;;;;;;5050208;28;20528;-64
2022/11/09 16:22:05;;;;;;;;;;;;;;;;;;5056690;28;19982;-65
2022/11/09 16:24:31;;;;;;;;;;;;;;;;;;5047730;28;19937;-64
2022/11/09 16:26:57;;;;;;;;;;;;;;;;;;5046261;28;19979;-65
2022/11/09 16:29:23;;;;;;;;;;;;;;;;;;5058852;28;19924;-65
2022/11/09 16:31:50;;;;;;;;;;;;;;;;;;5044050;28;19929;-64
2022/11/09 16:34:17;;;;;;;;;;;;;;;;;;5051594;28;19968;-64
2022/11/09 16:36:43;;;;;;;;;;;;;;;;;;5045200;28;19925;-64
2022/11/09 16:39:16;;;;;;;;;;;;;;;;;;5049865;28;19925;-64
2022/11/09 16:41:42;;;;;;;;;;;;;;;;;;5060761;28;20387;-64
2022/11/09 16:44:08;;;;;;;;;;;;;;;;;;5053076;28;19925;-63
2022/11/09 16:46:34;;;;;;;;;;;;;;;;;;5049677;28;19930;-64